createdAt,value
2019-01-16T00:00:41.696Z,0
2019-01-16T00:01:42.219Z,0
2019-01-16T00:02:41.919Z,0
2019-01-16T00:03:41.918Z,0
2019-01-16T00:04:41.951Z,0
2019-01-16T00:05:41.654Z,0
2019-01-16T00:06:42.465Z,0
2019-01-16T00:07:42.108Z,0
2019-01-16T00:08:42.146Z,0
2019-01-16T00:09:42.355Z,0
2019-01-16T00:10:42.107Z,0
2019-01-16T00:11:41.413Z,0
2019-01-16T00:12:41.845Z,0
2019-01-16T00:13:42.080Z,0
2019-01-16T00:14:42.037Z,0
2019-01-16T00:15:42.072Z,0
2019-01-16T00:16:42.274Z,0
2019-01-16T00:17:42.293Z,0
2019-01-16T00:18:42.047Z,0
2019-01-16T00:19:42.287Z,0
2019-01-16T00:20:41.986Z,0
2019-01-16T00:21:42.013Z,0
2019-01-16T00:22:41.972Z,0
2019-01-16T00:23:41.979Z,0
2019-01-16T00:24:41.983Z,0
2019-01-16T00:25:42.208Z,0
2019-01-16T00:26:42.274Z,0
2019-01-16T00:27:42.195Z,0
2019-01-16T00:28:41.676Z,0
2019-01-16T00:29:41.946Z,0
2019-01-16T00:30:42.166Z,0
2019-01-16T00:31:41.740Z,0
2019-01-16T00:32:41.887Z,0
2019-01-16T00:33:41.658Z,0
2019-01-16T00:34:41.859Z,0
2019-01-16T00:35:42.142Z,0
2019-01-16T00:36:41.376Z,0
2019-01-16T00:37:42.120Z,0
2019-01-16T00:38:41.857Z,0
2019-01-16T00:39:42.106Z,0
2019-01-16T00:40:41.850Z,0
2019-01-16T00:41:41.819Z,0
2019-01-16T00:42:41.829Z,0
2019-01-16T00:43:41.814Z,0
2019-01-16T00:44:41.551Z,0
2019-01-16T00:45:41.794Z,0
2019-01-16T00:46:42.109Z,0
2019-01-16T00:47:41.996Z,0
2019-01-16T00:48:41.750Z,0
2019-01-16T00:49:41.748Z,0
2019-01-16T00:50:41.749Z,0
2019-01-16T00:51:41.492Z,0
2019-01-16T00:52:41.714Z,0
2019-01-16T00:53:41.957Z,0
2019-01-16T00:54:41.706Z,0
2019-01-16T00:55:41.518Z,0
2019-01-16T00:56:41.490Z,0
2019-01-16T00:57:41.700Z,0
2019-01-16T00:58:41.915Z,0
2019-01-16T00:59:42.062Z,0
2019-01-16T01:00:41.671Z,0
2019-01-16T01:01:41.933Z,0
2019-01-16T01:02:41.901Z,0
2019-01-16T01:03:41.782Z,0
2019-01-16T01:04:41.660Z,0
2019-01-16T01:05:41.889Z,0
2019-01-16T01:06:41.650Z,0
2019-01-16T01:07:41.353Z,0
2019-01-16T01:08:41.365Z,0
2019-01-16T01:09:41.334Z,0
2019-01-16T01:10:41.597Z,0
2019-01-16T01:11:41.397Z,0
2019-01-16T01:12:41.315Z,0
2019-01-16T01:13:41.305Z,0
2019-01-16T01:14:41.109Z,0
2019-01-16T01:15:41.121Z,0
2019-01-16T01:16:41.596Z,0
2019-01-16T01:17:41.528Z,0
2019-01-16T01:18:47.899Z,0
2019-01-16T01:19:41.289Z,0
2019-01-16T01:20:40.745Z,0
2019-01-16T01:21:41.314Z,0
2019-01-16T01:22:41.490Z,0
2019-01-16T01:23:41.214Z,0
2019-01-16T01:24:41.453Z,0
2019-01-16T01:25:41.710Z,0
2019-01-16T01:26:41.518Z,0
2019-01-16T01:27:41.182Z,0
2019-01-16T01:28:41.168Z,0
2019-01-16T01:29:40.699Z,0
2019-01-16T01:30:41.398Z,0
2019-01-16T01:31:41.188Z,0
2019-01-16T01:32:41.137Z,0
2019-01-16T01:33:41.123Z,0
2019-01-16T01:34:41.394Z,0
2019-01-16T01:35:41.665Z,0
2019-01-16T01:36:41.751Z,0
2019-01-16T01:37:41.341Z,0
2019-01-16T01:38:41.364Z,0
2019-01-16T01:39:41.327Z,0
2019-01-16T01:40:41.063Z,0
2019-01-16T01:41:41.095Z,0
2019-01-16T01:42:41.063Z,0
2019-01-16T01:43:40.810Z,0
2019-01-16T01:44:41.051Z,0
2019-01-16T01:45:41.595Z,0
2019-01-16T01:46:41.059Z,0
2019-01-16T01:47:41.252Z,0
2019-01-16T01:48:47.009Z,0
2019-01-16T01:49:40.808Z,0
2019-01-16T01:50:41.224Z,0
2019-01-16T01:51:41.013Z,0
2019-01-16T01:52:40.738Z,0
2019-01-16T01:53:41.222Z,0
2019-01-16T01:54:41.197Z,0
2019-01-16T01:55:40.684Z,0
2019-01-16T01:56:41.426Z,0
2019-01-16T01:57:40.968Z,0
2019-01-16T01:58:40.907Z,0
2019-01-16T01:59:40.974Z,0
2019-01-16T02:00:41.173Z,0
2019-01-16T02:01:40.932Z,0
2019-01-16T02:02:40.901Z,0
2019-01-16T02:03:40.910Z,0
2019-01-16T02:04:44.273Z,0
2019-01-16T02:05:41.119Z,0
2019-01-16T02:06:41.187Z,0
2019-01-16T02:07:40.845Z,0
2019-01-16T02:08:40.857Z,0
2019-01-16T02:09:41.392Z,0
2019-01-16T02:10:40.965Z,0
2019-01-16T02:11:40.842Z,0
2019-01-16T02:12:41.058Z,0
2019-01-16T02:13:41.279Z,0
2019-01-16T02:14:41.024Z,0
2019-01-16T02:15:40.803Z,0
2019-01-16T02:16:41.011Z,0
2019-01-16T02:17:40.511Z,0
2019-01-16T02:18:47.152Z,0
2019-01-16T02:19:40.496Z,0
2019-01-16T02:20:40.980Z,0
2019-01-16T02:21:41.018Z,0
2019-01-16T02:22:40.951Z,0
2019-01-16T02:23:41.219Z,0
2019-01-16T02:24:40.940Z,0
2019-01-16T02:25:41.213Z,0
2019-01-16T02:26:40.701Z,0
2019-01-16T02:27:41.171Z,0
2019-01-16T02:28:41.158Z,0
2019-01-16T02:29:40.925Z,0
2019-01-16T02:30:40.645Z,0
2019-01-16T02:31:40.907Z,0
2019-01-16T02:32:40.886Z,0
2019-01-16T02:33:40.511Z,0
2019-01-16T02:34:40.611Z,0
2019-01-16T02:35:44.973Z,0
2019-01-16T02:36:41.145Z,0
2019-01-16T02:37:40.577Z,0
2019-01-16T02:38:40.574Z,0
2019-01-16T02:39:40.817Z,0
2019-01-16T02:40:40.353Z,0
2019-01-16T02:41:40.559Z,0
2019-01-16T02:42:40.839Z,0
2019-01-16T02:43:40.545Z,0
2019-01-16T02:44:41.043Z,0
2019-01-16T02:45:40.512Z,0
2019-01-16T02:46:40.536Z,0
2019-01-16T02:47:40.777Z,0
2019-01-16T02:48:40.848Z,0
2019-01-16T02:49:40.495Z,0
2019-01-16T02:50:40.818Z,0
2019-01-16T02:51:40.831Z,0
2019-01-16T02:52:40.483Z,0
2019-01-16T02:53:41.027Z,0
2019-01-16T02:54:40.700Z,0
2019-01-16T02:55:40.723Z,0
2019-01-16T02:56:40.479Z,0
2019-01-16T02:57:40.239Z,0
2019-01-16T02:58:40.691Z,0
2019-01-16T02:59:40.386Z,0
2019-01-16T03:00:40.635Z,0
2019-01-16T03:01:41.512Z,0
2019-01-16T03:02:40.617Z,0
2019-01-16T03:03:40.845Z,0
2019-01-16T03:04:40.351Z,0
2019-01-16T03:05:40.585Z,0
2019-01-16T03:06:40.863Z,0
2019-01-16T03:07:40.834Z,0
2019-01-16T03:08:40.547Z,0
2019-01-16T03:09:40.549Z,0
2019-01-16T03:10:40.345Z,0
2019-01-16T03:11:40.514Z,0
2019-01-16T03:12:40.791Z,0
2019-01-16T03:13:40.809Z,0
2019-01-16T03:14:40.814Z,0
2019-01-16T03:15:40.490Z,0
2019-01-16T03:16:39.736Z,0
2019-01-16T03:17:40.465Z,0
2019-01-16T03:18:40.464Z,0
2019-01-16T03:19:40.206Z,0
2019-01-16T03:20:40.441Z,0
2019-01-16T03:21:40.209Z,0
2019-01-16T03:22:39.933Z,0
2019-01-16T03:23:39.902Z,0
2019-01-16T03:24:40.193Z,0
2019-01-16T03:25:40.413Z,0
2019-01-16T03:26:40.503Z,0
2019-01-16T03:27:40.124Z,0
2019-01-16T03:28:40.618Z,0
2019-01-16T03:29:40.386Z,0
2019-01-16T03:30:40.380Z,0
2019-01-16T03:31:40.491Z,0
2019-01-16T03:32:40.164Z,0
2019-01-16T03:33:39.824Z,0
2019-01-16T03:34:40.084Z,0
2019-01-16T03:35:45.069Z,0
2019-01-16T03:36:40.053Z,0
2019-01-16T03:37:39.799Z,0
2019-01-16T03:38:40.010Z,0
2019-01-16T03:39:40.249Z,0
2019-01-16T03:40:40.267Z,0
2019-01-16T03:41:40.551Z,0
2019-01-16T03:42:40.494Z,0
2019-01-16T03:43:39.711Z,0
2019-01-16T03:44:40.190Z,0
2019-01-16T03:45:40.189Z,0
2019-01-16T03:46:40.189Z,0
2019-01-16T03:47:40.456Z,0
2019-01-16T03:48:40.196Z,0
2019-01-16T03:49:40.144Z,0
2019-01-16T03:50:39.912Z,0
2019-01-16T03:51:39.897Z,0
2019-01-16T03:52:40.115Z,0
2019-01-16T03:53:40.130Z,0
2019-01-16T03:54:40.341Z,0
2019-01-16T03:55:40.217Z,0
2019-01-16T03:56:39.575Z,0
2019-01-16T03:57:40.091Z,0
2019-01-16T03:58:39.807Z,0
2019-01-16T03:59:39.940Z,0
2019-01-16T04:00:39.540Z,0
2019-01-16T04:01:39.818Z,0
2019-01-16T04:02:40.280Z,0
2019-01-16T04:03:40.016Z,0
2019-01-16T04:04:40.023Z,0
2019-01-16T04:05:39.527Z,0
2019-01-16T04:06:41.133Z,0
2019-01-16T04:07:39.476Z,0
2019-01-16T04:08:39.457Z,0
2019-01-16T04:09:39.719Z,0
2019-01-16T04:10:39.934Z,0
2019-01-16T04:11:39.704Z,0
2019-01-16T04:12:39.966Z,0
2019-01-16T04:13:39.435Z,0
2019-01-16T04:14:39.634Z,0
2019-01-16T04:15:39.648Z,0
2019-01-16T04:16:39.892Z,0
2019-01-16T04:17:39.367Z,0
2019-01-16T04:18:40.109Z,0
2019-01-16T04:19:39.614Z,0
2019-01-16T04:20:40.128Z,0
2019-01-16T04:21:39.599Z,0
2019-01-16T04:22:40.074Z,0
2019-01-16T04:23:40.089Z,0
2019-01-16T04:24:39.562Z,0
2019-01-16T04:25:39.797Z,0
2019-01-16T04:26:39.612Z,0
2019-01-16T04:27:39.309Z,0
2019-01-16T04:28:40.023Z,0
2019-01-16T04:29:39.253Z,0
2019-01-16T04:30:39.032Z,0
2019-01-16T04:31:39.837Z,0
2019-01-16T04:32:39.968Z,0
2019-01-16T04:33:39.962Z,0
2019-01-16T04:34:39.717Z,0
2019-01-16T04:35:39.424Z,0
2019-01-16T04:36:39.184Z,0
2019-01-16T04:37:39.455Z,0
2019-01-16T04:38:39.661Z,0
2019-01-16T04:39:39.413Z,0
2019-01-16T04:40:39.877Z,0
2019-01-16T04:41:39.414Z,0
2019-01-16T04:42:39.659Z,0
2019-01-16T04:43:39.410Z,0
2019-01-16T04:44:39.649Z,0
2019-01-16T04:45:39.339Z,0
2019-01-16T04:46:39.617Z,0
2019-01-16T04:47:39.349Z,0
2019-01-16T04:48:39.058Z,0
2019-01-16T04:49:40.094Z,0
2019-01-16T04:50:39.319Z,0
2019-01-16T04:51:39.315Z,0
2019-01-16T04:52:39.514Z,0
2019-01-16T04:53:39.488Z,0
2019-01-16T04:54:39.511Z,0
2019-01-16T04:55:39.481Z,0
2019-01-16T04:56:39.240Z,0
2019-01-16T04:57:39.224Z,0
2019-01-16T04:58:39.490Z,0
2019-01-16T04:59:39.024Z,0
2019-01-16T05:00:38.942Z,0
2019-01-16T05:01:39.712Z,0
2019-01-16T05:02:39.449Z,0
2019-01-16T05:03:39.404Z,0
2019-01-16T05:04:39.424Z,0
2019-01-16T05:05:39.435Z,0
2019-01-16T05:06:39.377Z,0
2019-01-16T05:07:39.123Z,0
2019-01-16T05:08:39.113Z,0
2019-01-16T05:09:39.596Z,0
2019-01-16T05:10:39.370Z,0
2019-01-16T05:11:39.113Z,0
2019-01-16T05:12:39.080Z,0
2019-01-16T05:13:39.325Z,0
2019-01-16T05:14:39.312Z,0
2019-01-16T05:15:39.544Z,0
2019-01-16T05:16:39.305Z,0
2019-01-16T05:17:38.791Z,0
2019-01-16T05:18:39.297Z,0
2019-01-16T05:19:45.815Z,0
2019-01-16T05:20:38.756Z,0
2019-01-16T05:21:38.998Z,0
2019-01-16T05:22:39.236Z,0
2019-01-16T05:23:39.465Z,0
2019-01-16T05:24:39.221Z,0
2019-01-16T05:25:39.199Z,0
2019-01-16T05:26:38.947Z,0
2019-01-16T05:27:39.190Z,0
2019-01-16T05:28:38.681Z,0
2019-01-16T05:29:39.396Z,0
2019-01-16T05:30:38.673Z,0
2019-01-16T05:31:40.276Z,0
2019-01-16T05:32:38.656Z,0
2019-01-16T05:33:38.628Z,0
2019-01-16T05:34:39.103Z,0
2019-01-16T05:35:38.856Z,0
2019-01-16T05:36:39.092Z,0
2019-01-16T05:37:38.849Z,0
2019-01-16T05:38:38.911Z,0
2019-01-16T05:39:38.582Z,0
2019-01-16T05:40:39.338Z,0
2019-01-16T05:41:39.284Z,0
2019-01-16T05:42:39.339Z,0
2019-01-16T05:43:39.268Z,0
2019-01-16T05:44:39.268Z,0
2019-01-16T05:45:38.512Z,0
2019-01-16T05:46:39.025Z,0
2019-01-16T05:47:38.992Z,0
2019-01-16T05:48:38.959Z,0
2019-01-16T05:49:46.388Z,0
2019-01-16T05:50:38.943Z,0
2019-01-16T05:51:38.965Z,0
2019-01-16T05:52:38.919Z,0
2019-01-16T05:53:38.912Z,0
2019-01-16T05:54:39.251Z,0
2019-01-16T05:55:38.978Z,0
2019-01-16T05:56:38.887Z,0
2019-01-16T05:57:38.633Z,0
2019-01-16T05:58:38.877Z,0
2019-01-16T05:59:38.392Z,0
2019-01-16T06:00:38.607Z,0
2019-01-16T06:01:38.845Z,0
2019-01-16T06:02:38.581Z,0
2019-01-16T06:03:39.050Z,0
2019-01-16T06:04:38.331Z,0
2019-01-16T06:05:38.558Z,0
2019-01-16T06:06:38.799Z,0
2019-01-16T06:07:38.788Z,0
2019-01-16T06:08:38.796Z,0
2019-01-16T06:09:38.773Z,0
2019-01-16T06:10:38.763Z,0
2019-01-16T06:11:39.027Z,0
2019-01-16T06:12:38.485Z,0
2019-01-16T06:13:38.704Z,0
2019-01-16T06:14:38.709Z,0
2019-01-16T06:15:38.187Z,0
2019-01-16T06:16:38.428Z,0
2019-01-16T06:17:38.409Z,0
2019-01-16T06:18:38.415Z,0
2019-01-16T06:19:38.919Z,0
2019-01-16T06:20:38.622Z,0
2019-01-16T06:21:38.630Z,0
2019-01-16T06:22:39.337Z,0
2019-01-16T06:23:38.854Z,0
2019-01-16T06:24:38.836Z,0
2019-01-16T06:25:38.583Z,0
2019-01-16T06:26:38.338Z,0
2019-01-16T06:27:39.472Z,0
2019-01-16T06:28:38.810Z,0
2019-01-16T06:29:38.555Z,0
2019-01-16T06:30:38.773Z,0
2019-01-16T06:31:38.769Z,0
2019-01-16T06:32:38.274Z,0
2019-01-16T06:33:38.571Z,0
2019-01-16T06:34:38.739Z,0
2019-01-16T06:35:38.513Z,0
2019-01-16T06:36:37.738Z,0
2019-01-16T06:37:38.228Z,0
2019-01-16T06:38:38.467Z,0
2019-01-16T06:39:38.428Z,0
2019-01-16T06:40:37.939Z,0
2019-01-16T06:41:38.418Z,0
2019-01-16T06:42:38.403Z,0
2019-01-16T06:43:38.423Z,0
2019-01-16T06:44:40.430Z,0
2019-01-16T06:45:38.365Z,0
2019-01-16T06:46:38.344Z,0
2019-01-16T06:47:38.595Z,0
2019-01-16T06:48:38.337Z,0
2019-01-16T06:49:39.003Z,0
2019-01-16T06:50:38.576Z,0
2019-01-16T06:51:37.832Z,0
2019-01-16T06:52:38.065Z,0
2019-01-16T06:53:38.055Z,0
2019-01-16T06:54:37.785Z,0
2019-01-16T06:55:38.043Z,0
2019-01-16T06:56:38.076Z,0
2019-01-16T06:57:38.411Z,0
2019-01-16T06:58:37.992Z,0
2019-01-16T06:59:38.234Z,0
2019-01-16T07:00:37.977Z,0
2019-01-16T07:01:38.233Z,0
2019-01-16T07:02:38.192Z,0
2019-01-16T07:03:38.214Z,0
2019-01-16T07:04:38.413Z,0
2019-01-16T07:05:38.174Z,0
2019-01-16T07:06:38.163Z,0
2019-01-16T07:07:37.913Z,0
2019-01-16T07:08:37.665Z,5
2019-01-16T07:09:38.424Z,5
2019-01-16T07:10:38.096Z,5
2019-01-16T07:11:38.105Z,5
2019-01-16T07:12:39.152Z,5
2019-01-16T07:13:38.122Z,5
2019-01-16T07:14:38.065Z,5
2019-01-16T07:15:38.069Z,5
2019-01-16T07:16:38.280Z,10
2019-01-16T07:17:38.019Z,10
2019-01-16T07:18:38.028Z,10
2019-01-16T07:19:38.010Z,10
2019-01-16T07:20:38.609Z,10
2019-01-16T07:21:38.228Z,15
2019-01-16T07:22:38.000Z,15
2019-01-16T07:23:37.729Z,15
2019-01-16T07:24:37.688Z,15
2019-01-16T07:25:37.995Z,15
2019-01-16T07:26:37.719Z,20
2019-01-16T07:27:37.714Z,20
2019-01-16T07:28:37.672Z,20
2019-01-16T07:29:37.661Z,25
2019-01-16T07:30:37.869Z,25
2019-01-16T07:31:37.628Z,25
2019-01-16T07:32:37.393Z,30
2019-01-16T07:33:38.115Z,30
2019-01-16T07:34:37.595Z,30
2019-01-16T07:35:37.594Z,30
2019-01-16T07:36:37.586Z,30
2019-01-16T07:37:37.834Z,35
2019-01-16T07:38:38.131Z,35
2019-01-16T07:39:37.532Z,35
2019-01-16T07:40:37.550Z,35
2019-01-16T07:41:38.873Z,35
2019-01-16T07:42:37.340Z,35
2019-01-16T07:43:37.773Z,40
2019-01-16T07:44:37.982Z,40
2019-01-16T07:45:38.001Z,40
2019-01-16T07:46:37.719Z,40
2019-01-16T07:47:36.982Z,40
2019-01-16T07:48:37.984Z,40
2019-01-16T07:49:37.445Z,45
2019-01-16T07:50:37.962Z,45
2019-01-16T07:51:37.226Z,45
2019-01-16T07:52:36.982Z,45
2019-01-16T07:53:37.727Z,50
2019-01-16T07:54:37.687Z,50
2019-01-16T07:55:37.639Z,50
2019-01-16T07:56:37.133Z,50
2019-01-16T07:57:37.899Z,55
2019-01-16T07:58:36.878Z,55
2019-01-16T07:59:37.598Z,60
2019-01-16T08:00:37.644Z,60
2019-01-16T08:01:37.342Z,60
2019-01-16T08:02:39.146Z,60
2019-01-16T08:03:37.571Z,65
2019-01-16T08:04:37.049Z,65
2019-01-16T08:05:37.524Z,65
2019-01-16T08:06:37.526Z,65
2019-01-16T08:07:37.276Z,65
2019-01-16T08:08:37.494Z,65
2019-01-16T08:09:37.727Z,70
2019-01-16T08:10:38.514Z,70
2019-01-16T08:11:36.717Z,70
2019-01-16T08:12:37.240Z,75
2019-01-16T08:13:37.447Z,75
2019-01-16T08:14:37.669Z,75
2019-01-16T08:15:37.174Z,75
2019-01-16T08:16:37.189Z,80
2019-01-16T08:17:37.678Z,80
2019-01-16T08:18:37.149Z,80
2019-01-16T08:19:37.387Z,85
2019-01-16T08:20:37.144Z,85
2019-01-16T08:21:37.632Z,90
2019-01-16T08:22:37.129Z,90
2019-01-16T08:23:37.367Z,90
2019-01-16T08:24:37.354Z,95
2019-01-16T08:25:37.360Z,95
2019-01-16T08:26:37.318Z,95
2019-01-16T08:27:37.341Z,100
2019-01-16T08:28:36.807Z,100
2019-01-16T08:29:37.288Z,100
2019-01-16T08:30:37.513Z,100
2019-01-16T08:31:37.542Z,100
2019-01-16T08:32:37.260Z,105
2019-01-16T08:33:37.325Z,110
2019-01-16T08:34:37.521Z,110
2019-01-16T08:35:36.708Z,110
2019-01-16T08:36:36.960Z,115
2019-01-16T08:37:37.210Z,115
2019-01-16T08:38:36.945Z,120
2019-01-16T08:39:36.930Z,120
2019-01-16T08:40:37.187Z,120
2019-01-16T08:41:37.177Z,120
2019-01-16T08:42:37.146Z,125
2019-01-16T08:43:36.658Z,125
2019-01-16T08:44:38.219Z,125
2019-01-16T08:45:36.876Z,125
2019-01-16T08:46:37.110Z,125
2019-01-16T08:47:37.108Z,130
2019-01-16T08:48:36.837Z,135
2019-01-16T08:49:37.328Z,135
2019-01-16T08:50:41.929Z,135
2019-01-16T08:51:37.058Z,140
2019-01-16T08:52:36.807Z,140
2019-01-16T08:53:37.843Z,140
2019-01-16T08:54:36.794Z,135
2019-01-16T08:55:36.758Z,135
2019-01-16T08:56:37.254Z,130
2019-01-16T08:57:36.738Z,130
2019-01-16T08:58:37.035Z,135
2019-01-16T08:59:36.716Z,140
2019-01-16T09:00:36.718Z,140
2019-01-16T09:01:42.218Z,140
2019-01-16T09:02:36.944Z,140
2019-01-16T09:03:36.919Z,145
2019-01-16T09:04:36.678Z,145
2019-01-16T09:05:36.402Z,145
2019-01-16T09:06:36.746Z,140
2019-01-16T09:07:36.388Z,145
2019-01-16T09:08:36.879Z,140
2019-01-16T09:09:36.877Z,140
2019-01-16T09:10:36.104Z,145
2019-01-16T09:11:36.860Z,140
2019-01-16T09:12:37.069Z,140
2019-01-16T09:13:36.579Z,140
2019-01-16T09:14:36.323Z,145
2019-01-16T09:15:44.043Z,140
2019-01-16T09:16:36.304Z,140
2019-01-16T09:17:36.526Z,145
2019-01-16T09:18:36.564Z,145
2019-01-16T09:19:36.543Z,145
2019-01-16T09:20:42.405Z,145
2019-01-16T09:21:36.529Z,145
2019-01-16T09:22:36.256Z,150
2019-01-16T09:23:36.746Z,150
2019-01-16T09:24:36.738Z,150
2019-01-16T09:25:36.732Z,150
2019-01-16T09:26:36.491Z,150
2019-01-16T09:27:36.690Z,150
2019-01-16T09:28:36.435Z,150
2019-01-16T09:29:36.441Z,155
2019-01-16T09:30:36.703Z,155
2019-01-16T09:31:36.659Z,155
2019-01-16T09:32:36.373Z,155
2019-01-16T09:33:36.390Z,155
2019-01-16T09:34:36.144Z,155
2019-01-16T09:35:36.658Z,155
2019-01-16T09:36:37.953Z,160
2019-01-16T09:37:36.626Z,160
2019-01-16T09:38:36.880Z,165
2019-01-16T09:39:36.327Z,170
2019-01-16T09:40:36.101Z,170
2019-01-16T09:41:36.073Z,170
2019-01-16T09:42:36.053Z,170
2019-01-16T09:43:36.779Z,170
2019-01-16T09:44:36.530Z,170
2019-01-16T09:45:36.550Z,170
2019-01-16T09:46:36.296Z,170
2019-01-16T09:47:37.824Z,170
2019-01-16T09:48:36.262Z,170
2019-01-16T09:49:35.995Z,175
2019-01-16T09:50:36.479Z,175
2019-01-16T09:51:36.476Z,175
2019-01-16T09:52:36.493Z,170
2019-01-16T09:53:36.512Z,175
2019-01-16T09:54:36.464Z,175
2019-01-16T09:55:36.191Z,175
2019-01-16T09:56:36.684Z,170
2019-01-16T09:57:35.943Z,180
2019-01-16T09:58:36.175Z,175
2019-01-16T09:59:36.154Z,170
2019-01-16T10:00:36.665Z,175
2019-01-16T10:01:36.170Z,175
2019-01-16T10:02:36.663Z,170
2019-01-16T10:03:36.649Z,170
2019-01-16T10:04:36.105Z,175
2019-01-16T10:05:36.108Z,175
2019-01-16T10:06:36.358Z,175
2019-01-16T10:07:36.112Z,175
2019-01-16T10:08:36.333Z,180
2019-01-16T10:09:35.816Z,180
2019-01-16T10:10:37.104Z,185
2019-01-16T10:11:35.799Z,185
2019-01-16T10:12:36.052Z,185
2019-01-16T10:13:36.027Z,185
2019-01-16T10:14:36.273Z,190
2019-01-16T10:15:36.524Z,180
2019-01-16T10:16:36.002Z,185
2019-01-16T10:17:36.347Z,185
2019-01-16T10:18:35.737Z,185
2019-01-16T10:19:35.969Z,185
2019-01-16T10:20:35.732Z,165
2019-01-16T10:21:36.009Z,170
2019-01-16T10:22:35.717Z,170
2019-01-16T10:23:36.223Z,170
2019-01-16T10:24:36.091Z,170
2019-01-16T10:25:36.214Z,170
2019-01-16T10:26:36.215Z,180
2019-01-16T10:27:36.168Z,180
2019-01-16T10:28:36.158Z,185
2019-01-16T10:29:36.165Z,185
2019-01-16T10:30:35.922Z,175
2019-01-16T10:31:35.704Z,180
2019-01-16T10:32:35.880Z,185
2019-01-16T10:33:36.123Z,180
2019-01-16T10:34:35.856Z,185
2019-01-16T10:35:36.071Z,180
2019-01-16T10:36:36.064Z,185
2019-01-16T10:37:35.816Z,190
2019-01-16T10:38:35.808Z,185
2019-01-16T10:39:36.288Z,185
2019-01-16T10:40:35.540Z,190
2019-01-16T10:41:36.029Z,185
2019-01-16T10:42:36.019Z,185
2019-01-16T10:43:36.020Z,185
2019-01-16T10:44:36.040Z,185
2019-01-16T10:45:35.497Z,185
2019-01-16T10:46:36.026Z,185
2019-01-16T10:47:35.234Z,180
2019-01-16T10:48:35.755Z,180
2019-01-16T10:49:35.712Z,180
2019-01-16T10:50:35.464Z,185
2019-01-16T10:51:36.206Z,185
2019-01-16T10:52:35.433Z,185
2019-01-16T10:53:35.718Z,190
2019-01-16T10:54:35.419Z,190
2019-01-16T10:55:35.413Z,190
2019-01-16T10:56:35.914Z,185
2019-01-16T10:57:36.282Z,185
2019-01-16T10:58:35.983Z,185
2019-01-16T10:59:35.977Z,185
2019-01-16T11:00:35.392Z,190
2019-01-16T11:01:35.681Z,190
2019-01-16T11:02:35.643Z,185
2019-01-16T11:03:35.855Z,185
2019-01-16T11:04:35.854Z,180
2019-01-16T11:05:36.093Z,180
2019-01-16T11:06:35.636Z,180
2019-01-16T11:07:35.601Z,180
2019-01-16T11:08:35.576Z,175
2019-01-16T11:09:35.604Z,180
2019-01-16T11:10:35.319Z,185
2019-01-16T11:11:35.822Z,180
2019-01-16T11:12:36.037Z,180
2019-01-16T11:13:36.487Z,180
2019-01-16T11:14:35.292Z,185
2019-01-16T11:15:35.537Z,190
2019-01-16T11:16:35.519Z,185
2019-01-16T11:17:35.256Z,185
2019-01-16T11:18:35.755Z,185
2019-01-16T11:19:35.732Z,190
2019-01-16T11:20:35.771Z,190
2019-01-16T11:21:35.481Z,190
2019-01-16T11:22:35.720Z,190
2019-01-16T11:23:35.726Z,190
2019-01-16T11:24:35.750Z,190
2019-01-16T11:25:35.188Z,195
2019-01-16T11:26:35.442Z,195
2019-01-16T11:27:35.933Z,195
2019-01-16T11:28:35.420Z,200
2019-01-16T11:29:35.938Z,200
2019-01-16T11:30:35.427Z,195
2019-01-16T11:31:35.421Z,200
2019-01-16T11:32:35.385Z,200
2019-01-16T11:33:35.628Z,200
2019-01-16T11:34:35.660Z,200
2019-01-16T11:35:35.650Z,200
2019-01-16T11:36:35.411Z,195
2019-01-16T11:37:35.144Z,195
2019-01-16T11:38:35.660Z,200
2019-01-16T11:39:35.906Z,200
2019-01-16T11:40:35.627Z,195
2019-01-16T11:41:35.617Z,195
2019-01-16T11:42:35.362Z,195
2019-01-16T11:43:35.343Z,195
2019-01-16T11:44:35.587Z,195
2019-01-16T11:45:35.576Z,195
2019-01-16T11:46:35.649Z,195
2019-01-16T11:47:35.837Z,190
2019-01-16T11:48:35.053Z,185
2019-01-16T11:49:35.580Z,185
2019-01-16T11:50:35.272Z,185
2019-01-16T11:51:42.707Z,190
2019-01-16T11:52:35.266Z,195
2019-01-16T11:53:35.594Z,195
2019-01-16T11:54:34.975Z,190
2019-01-16T11:55:35.487Z,195
2019-01-16T11:56:35.283Z,195
2019-01-16T11:57:35.276Z,195
2019-01-16T11:58:35.749Z,190
2019-01-16T11:59:36.337Z,190
2019-01-16T12:00:35.461Z,190
2019-01-16T12:01:35.709Z,190
2019-01-16T12:02:42.877Z,190
2019-01-16T12:03:35.429Z,190
2019-01-16T12:04:35.701Z,190
2019-01-16T12:05:35.182Z,190
2019-01-16T12:06:35.451Z,190
2019-01-16T12:07:34.661Z,195
2019-01-16T12:08:35.667Z,200
2019-01-16T12:09:35.426Z,190
2019-01-16T12:10:36.336Z,190
2019-01-16T12:11:35.152Z,190
2019-01-16T12:12:35.398Z,190
2019-01-16T12:13:35.123Z,190
2019-01-16T12:14:34.867Z,190
2019-01-16T12:15:35.125Z,190
2019-01-16T12:16:35.384Z,180
2019-01-16T12:17:36.939Z,175
2019-01-16T12:18:35.090Z,175
2019-01-16T12:19:35.084Z,180
2019-01-16T12:20:34.829Z,180
2019-01-16T12:21:36.015Z,180
2019-01-16T12:22:35.579Z,185
2019-01-16T12:23:35.551Z,185
2019-01-16T12:24:35.315Z,185
2019-01-16T12:25:35.958Z,185
2019-01-16T12:26:35.551Z,190
2019-01-16T12:27:35.328Z,190
2019-01-16T12:28:35.581Z,190
2019-01-16T12:29:35.284Z,190
2019-01-16T12:30:35.278Z,190
2019-01-16T12:31:35.514Z,190
2019-01-16T12:32:35.255Z,185
2019-01-16T12:33:35.280Z,185
2019-01-16T12:34:35.238Z,185
2019-01-16T12:35:35.508Z,185
2019-01-16T12:36:35.498Z,180
2019-01-16T12:37:34.974Z,175
2019-01-16T12:38:35.460Z,170
2019-01-16T12:39:35.472Z,170
2019-01-16T12:40:35.461Z,170
2019-01-16T12:41:35.190Z,170
2019-01-16T12:42:35.200Z,165
2019-01-16T12:43:34.939Z,165
2019-01-16T12:44:34.933Z,165
2019-01-16T12:45:35.189Z,170
2019-01-16T12:46:34.929Z,165
2019-01-16T12:47:34.909Z,170
2019-01-16T12:48:35.513Z,165
2019-01-16T12:49:35.424Z,165
2019-01-16T12:50:35.426Z,165
2019-01-16T12:51:40.657Z,165
2019-01-16T12:52:34.885Z,165
2019-01-16T12:53:34.919Z,165
2019-01-16T12:54:35.176Z,165
2019-01-16T12:55:35.096Z,165
2019-01-16T12:56:35.374Z,160
2019-01-16T12:57:34.856Z,160
2019-01-16T12:58:35.094Z,160
2019-01-16T12:59:35.103Z,155
2019-01-16T13:00:35.110Z,155
2019-01-16T13:01:35.370Z,155
2019-01-16T13:02:35.091Z,155
2019-01-16T13:03:35.378Z,155
2019-01-16T13:04:35.066Z,155
2019-01-16T13:05:35.058Z,155
2019-01-16T13:06:35.079Z,155
2019-01-16T13:07:35.063Z,155
2019-01-16T13:08:35.313Z,150
2019-01-16T13:09:35.275Z,155
2019-01-16T13:10:34.549Z,150
2019-01-16T13:11:34.808Z,145
2019-01-16T13:12:35.042Z,145
2019-01-16T13:13:35.041Z,145
2019-01-16T13:14:39.698Z,145
2019-01-16T13:15:34.761Z,145
2019-01-16T13:16:35.267Z,145
2019-01-16T13:17:35.255Z,145
2019-01-16T13:18:34.995Z,145
2019-01-16T13:19:34.985Z,145
2019-01-16T13:20:35.256Z,140
2019-01-16T13:21:39.888Z,140
2019-01-16T13:22:34.984Z,140
2019-01-16T13:23:34.986Z,140
2019-01-16T13:24:34.460Z,140
2019-01-16T13:25:35.173Z,140
2019-01-16T13:26:34.689Z,140
2019-01-16T13:27:34.949Z,140
2019-01-16T13:28:35.416Z,135
2019-01-16T13:29:40.035Z,135
2019-01-16T13:30:34.693Z,140
2019-01-16T13:31:34.433Z,130
2019-01-16T13:32:34.963Z,130
2019-01-16T13:33:34.929Z,130
2019-01-16T13:34:35.249Z,125
2019-01-16T13:35:34.652Z,125
2019-01-16T13:36:35.147Z,125
2019-01-16T13:37:34.908Z,125
2019-01-16T13:38:34.630Z,125
2019-01-16T13:39:34.992Z,125
2019-01-16T13:40:34.386Z,125
2019-01-16T13:41:34.906Z,125
2019-01-16T13:42:34.869Z,125
2019-01-16T13:43:34.889Z,125
2019-01-16T13:44:34.843Z,125
2019-01-16T13:45:34.850Z,120
2019-01-16T13:46:34.621Z,120
2019-01-16T13:47:34.872Z,120
2019-01-16T13:48:34.867Z,120
2019-01-16T13:49:35.105Z,120
2019-01-16T13:50:34.596Z,120
2019-01-16T13:51:34.067Z,115
2019-01-16T13:52:34.815Z,115
2019-01-16T13:53:34.833Z,115
2019-01-16T13:54:34.833Z,115
2019-01-16T13:55:35.389Z,110
2019-01-16T13:56:34.555Z,110
2019-01-16T13:57:35.073Z,110
2019-01-16T13:58:34.275Z,110
2019-01-16T13:59:34.591Z,105
2019-01-16T14:00:35.042Z,105
2019-01-16T14:01:35.007Z,105
2019-01-16T14:02:34.988Z,105
2019-01-16T14:03:34.753Z,105
2019-01-16T14:04:34.009Z,105
2019-01-16T14:05:35.094Z,105
2019-01-16T14:06:34.823Z,105
2019-01-16T14:07:34.509Z,105
2019-01-16T14:08:34.489Z,105
2019-01-16T14:09:34.718Z,105
2019-01-16T14:10:34.271Z,105
2019-01-16T14:11:33.984Z,105
2019-01-16T14:12:34.468Z,105
2019-01-16T14:13:34.723Z,100
2019-01-16T14:14:34.430Z,105
2019-01-16T14:15:34.713Z,100
2019-01-16T14:16:34.445Z,100
2019-01-16T14:17:34.695Z,100
2019-01-16T14:18:34.671Z,100